Retreat, Georgia
Current Conditions -  °F | °C
As of 3:22 PM on Monday 22 Dec 2014 (Local Time) from KLHW Reporting Station
Light Rain Light Rain  
Wind Chill: 11°   Ceiling: 1800
Heat Index: 11°   Visibility: 10mi
Dew Point: 10°   Wind: 10mph
Humidity: 94%   Direction: 110°ESE
Pressure: 29.91"   Gusts: NA
Location:  31.7217°N, 81.4475°W
Report Text: KLHW 222022Z AUTO 11009KT 10SM -RA FEW003 OVC018 11/10 A2991 RMK AO2 LTG DSNT SE
Loading
Personal Weather Stations






























Interactive Weather Map New forecast layout! Learn more

10-Day Weather Forecast

Advertisements
Track Severe Weather on mobile